Time;durP1;ratioP1;P1;durP2;ratioP2;P2;SDS_P1;SDS_P2;PMS_P1;PMS_P2;Temp;Humidity;BMP_temperature;BMP_pressure;BME280_temperature;BME280_humidity;BME280_pressure;Samples;Min_cycle;Max_cycle;Signal;HPM_P1;HPM_P2
2022/09/20 00:00:26;;;;;;;;;;;;;;;;;;4918081;29;19926;-88
2022/09/20 00:02:51;;;;;;;;;;;;;;;;;;4929197;29;20373;-88
2022/09/20 00:05:16;;;;;;;;;;;;;;;;;;4915520;29;19915;-87
2022/09/20 00:07:41;;;;;;;;;;;;;;;;;;4918912;29;20217;-88
2022/09/20 00:10:07;;;;;;;;;;;;;;;;;;4916660;29;20017;-87
2022/09/20 00:12:32;;;;;;;;;;;;;;;;;;4912357;29;19915;-88
2022/09/20 00:14:57;;;;;;;;;;;;;;;;;;4911535;29;20373;-87
2022/09/20 00:17:23;;;;;;;;;;;;;;;;;;4919760;29;21356;-88
2022/09/20 00:19:48;;;;;;;;;;;;;;;;;;4913545;29;19915;-88
2022/09/20 00:22:13;;;;;;;;;;;;;;;;;;4917315;29;19915;-88
2022/09/20 00:24:38;;;;;;;;;;;;;;;;;;4918865;29;19922;-88
2022/09/20 00:27:03;;;;;;;;;;;;;;;;;;4917320;29;19915;-87
2022/09/20 00:29:28;;;;;;;;;;;;;;;;;;4915235;29;20437;-88
2022/09/20 00:31:54;;;;;;;;;;;;;;;;;;4921163;29;20013;-87
2022/09/20 00:37:03;;;;;;;;;;;;;;;;;;4915265;29;20100;-88
2022/09/20 00:39:28;;;;;;;;;;;;;;;;;;4915934;29;20070;-88
2022/09/20 00:41:53;;;;;;;;;;;;;;;;;;4912963;29;20002;-87
2022/09/20 00:44:18;;;;;;;;;;;;;;;;;;4919113;29;19914;-87
2022/09/20 00:46:44;;;;;;;;;;;;;;;;;;4920683;29;19986;-88
2022/09/20 00:49:09;;;;;;;;;;;;;;;;;;4921710;29;19921;-87
2022/09/20 00:51:34;;;;;;;;;;;;;;;;;;4920841;29;19919;-87
2022/09/20 00:53:59;;;;;;;;;;;;;;;;;;4926939;29;20461;-88
2022/09/20 00:56:24;;;;;;;;;;;;;;;;;;4918208;29;19926;-87
2022/09/20 00:58:49;;;;;;;;;;;;;;;;;;4914428;29;19979;-87
2022/09/20 01:01:15;;;;;;;;;;;;;;;;;;4926022;29;19911;-87
2022/09/20 01:03:41;;;;;;;;;;;;;;;;;;4925576;29;19919;-87
2022/09/20 01:06:06;;;;;;;;;;;;;;;;;;4916179;29;19918;-87
2022/09/20 01:08:31;;;;;;;;;;;;;;;;;;4923813;29;19925;-87
2022/09/20 01:10:56;;;;;;;;;;;;;;;;;;4925751;29;20369;-88
2022/09/20 01:13:21;;;;;;;;;;;;;;;;;;4920760;29;19973;-88
2022/09/20 01:15:46;;;;;;;;;;;;;;;;;;4914532;29;19965;-88
2022/09/20 01:18:12;;;;;;;;;;;;;;;;;;4914212;29;19915;-87
2022/09/20 01:20:37;;;;;;;;;;;;;;;;;;4921983;29;20382;-88
2022/09/20 01:23:06;;;;;;;;;;;;;;;;;;4923872;29;19957;-87
2022/09/20 01:25:31;;;;;;;;;;;;;;;;;;4923596;29;19919;-87
2022/09/20 01:27:56;;;;;;;;;;;;;;;;;;4907516;29;20282;-88
2022/09/20 01:30:21;;;;;;;;;;;;;;;;;;4919393;29;20041;-88
2022/09/20 01:32:47;;;;;;;;;;;;;;;;;;4913852;29;19971;-88
2022/09/20 01:35:13;;;;;;;;;;;;;;;;;;4918601;29;19923;-86
2022/09/20 01:37:38;;;;;;;;;;;;;;;;;;4919527;29;19923;-87
2022/09/20 01:40:03;;;;;;;;;;;;;;;;;;4925184;29;20399;-87
2022/09/20 01:42:28;;;;;;;;;;;;;;;;;;4917822;29;19972;-88
2022/09/20 01:44:53;;;;;;;;;;;;;;;;;;4924060;29;19967;-87
2022/09/20 01:47:18;;;;;;;;;;;;;;;;;;4917002;29;19923;-88
2022/09/20 01:49:44;;;;;;;;;;;;;;;;;;4917900;29;19942;-88
2022/09/20 01:52:09;;;;;;;;;;;;;;;;;;4915714;29;19940;-88
2022/09/20 01:54:34;;;;;;;;;;;;;;;;;;4918656;29;19923;-87
2022/09/20 01:56:59;;;;;;;;;;;;;;;;;;4922420;29;20464;-87
2022/09/20 01:59:24;;;;;;;;;;;;;;;;;;4919331;29;19919;-88
2022/09/20 02:01:49;;;;;;;;;;;;;;;;;;4925010;29;20350;-88
2022/09/20 02:04:15;;;;;;;;;;;;;;;;;;4910135;29;19915;-88
2022/09/20 02:06:40;;;;;;;;;;;;;;;;;;4921828;29;20290;-88
2022/09/20 02:09:05;;;;;;;;;;;;;;;;;;4918465;29;20616;-88
2022/09/20 02:11:30;;;;;;;;;;;;;;;;;;4917736;29;19919;-88
2022/09/20 02:13:55;;;;;;;;;;;;;;;;;;4922568;29;19923;-88
2022/09/20 02:16:23;;;;;;;;;;;;;;;;;;4916326;29;19970;-88
2022/09/20 02:18:48;;;;;;;;;;;;;;;;;;4922057;29;19951;-88
2022/09/20 02:21:13;;;;;;;;;;;;;;;;;;4918307;29;19919;-87
2022/09/20 02:23:38;;;;;;;;;;;;;;;;;;4919253;29;19914;-88
2022/09/20 02:26:03;;;;;;;;;;;;;;;;;;4919943;29;19914;-88
2022/09/20 02:28:29;;;;;;;;;;;;;;;;;;4913222;29;19985;-89
2022/09/20 02:30:54;;;;;;;;;;;;;;;;;;4916001;29;19915;-88
2022/09/20 02:33:19;;;;;;;;;;;;;;;;;;4913225;29;20431;-88
2022/09/20 02:35:44;;;;;;;;;;;;;;;;;;4912811;29;19915;-88
2022/09/20 02:38:10;;;;;;;;;;;;;;;;;;4917899;29;20468;-88
2022/09/20 02:40:35;;;;;;;;;;;;;;;;;;4916946;29;19926;-88
2022/09/20 02:43:00;;;;;;;;;;;;;;;;;;4915253;29;19923;-88
2022/09/20 02:45:25;;;;;;;;;;;;;;;;;;4917322;29;20199;-88
2022/09/20 02:47:50;;;;;;;;;;;;;;;;;;4917333;29;19915;-88
2022/09/20 02:50:16;;;;;;;;;;;;;;;;;;4920399;29;20373;-88
2022/09/20 02:52:41;;;;;;;;;;;;;;;;;;4917640;29;19915;-88
2022/09/20 02:55:06;;;;;;;;;;;;;;;;;;4911942;29;20191;-88
2022/09/20 02:57:32;;;;;;;;;;;;;;;;;;4914405;29;19919;-88
2022/09/20 02:59:57;;;;;;;;;;;;;;;;;;4919142;29;19931;-88
2022/09/20 03:02:22;;;;;;;;;;;;;;;;;;4912124;29;19919;-88
2022/09/20 03:04:48;;;;;;;;;;;;;;;;;;4912522;29;20413;-88
2022/09/20 03:07:13;;;;;;;;;;;;;;;;;;4917989;29;20522;-88
2022/09/20 03:09:38;;;;;;;;;;;;;;;;;;4917615;29;19922;-88
2022/09/20 03:12:03;;;;;;;;;;;;;;;;;;4917470;29;19915;-88
2022/09/20 03:14:28;;;;;;;;;;;;;;;;;;4917652;29;20458;-88
2022/09/20 03:16:53;;;;;;;;;;;;;;;;;;4913720;29;19915;-88
2022/09/20 03:19:19;;;;;;;;;;;;;;;;;;4917442;29;20058;-88
2022/09/20 03:21:44;;;;;;;;;;;;;;;;;;4919726;29;19922;-88
2022/09/20 03:24:09;;;;;;;;;;;;;;;;;;4913339;29;20013;-87
2022/09/20 03:26:34;;;;;;;;;;;;;;;;;;4920316;29;19919;-89
2022/09/20 03:28:59;;;;;;;;;;;;;;;;;;4912020;29;19916;-88
2022/09/20 03:31:25;;;;;;;;;;;;;;;;;;4916435;29;19915;-88
2022/09/20 03:33:50;;;;;;;;;;;;;;;;;;4919159;29;19928;-88
2022/09/20 03:36:15;;;;;;;;;;;;;;;;;;4894013;29;19915;-89
2022/09/20 03:38:40;;;;;;;;;;;;;;;;;;4919778;29;19993;-88
2022/09/20 03:41:06;;;;;;;;;;;;;;;;;;4919326;29;19926;-88
2022/09/20 03:43:32;;;;;;;;;;;;;;;;;;4906323;29;19919;-90
2022/09/20 03:45:57;;;;;;;;;;;;;;;;;;4914644;29;19920;-89
2022/09/20 03:48:22;;;;;;;;;;;;;;;;;;4914918;29;19915;-89
2022/09/20 03:50:47;;;;;;;;;;;;;;;;;;4934212;29;20047;-89
2022/09/20 03:53:12;;;;;;;;;;;;;;;;;;4933781;29;19998;-91
2022/09/20 03:55:37;;;;;;;;;;;;;;;;;;4915435;29;19911;-89
2022/09/20 03:58:03;;;;;;;;;;;;;;;;;;4915134;29;19915;-89
2022/09/20 04:00:28;;;;;;;;;;;;;;;;;;4916862;29;19990;-89
2022/09/20 04:02:53;;;;;;;;;;;;;;;;;;4914774;29;19918;-90
2022/09/20 04:05:18;;;;;;;;;;;;;;;;;;4915129;29;19911;-89
2022/09/20 04:07:43;;;;;;;;;;;;;;;;;;4914586;29;20429;-89
2022/09/20 04:10:09;;;;;;;;;;;;;;;;;;4914531;29;19911;-89
2022/09/20 04:12:34;;;;;;;;;;;;;;;;;;4914773;29;19918;-89
2022/09/20 04:14:59;;;;;;;;;;;;;;;;;;4915468;29;19946;-89
2022/09/20 04:17:24;;;;;;;;;;;;;;;;;;4918685;29;20033;-90
2022/09/20 04:19:50;;;;;;;;;;;;;;;;;;4918768;29;20137;-88
2022/09/20 04:22:17;;;;;;;;;;;;;;;;;;4900951;29;20361;-89
2022/09/20 04:24:42;;;;;;;;;;;;;;;;;;4916945;29;19918;-89
2022/09/20 04:27:08;;;;;;;;;;;;;;;;;;4918563;29;19919;-89
2022/09/20 04:29:33;;;;;;;;;;;;;;;;;;4918484;29;19980;-89
2022/09/20 04:31:58;;;;;;;;;;;;;;;;;;4918645;29;19911;-88
2022/09/20 04:36:27;;;;;;;;;;;;;;;;;;4918230;29;20330;-89
2022/09/20 04:37:08;;;;;;;;;;;;;;;;;;4917270;29;19957;-89
2022/09/20 04:39:33;;;;;;;;;;;;;;;;;;4916435;29;20428;-89
2022/09/20 04:41:58;;;;;;;;;;;;;;;;;;4917200;29;19912;-89
2022/09/20 04:44:26;;;;;;;;;;;;;;;;;;4917904;29;20326;-89
2022/09/20 04:46:51;;;;;;;;;;;;;;;;;;4918059;29;19911;-89
2022/09/20 04:49:17;;;;;;;;;;;;;;;;;;4918406;29;19911;-89
2022/09/20 04:51:43;;;;;;;;;;;;;;;;;;4926287;29;19966;-89
2022/09/20 04:54:08;;;;;;;;;;;;;;;;;;4936853;29;20333;-89
2022/09/20 04:56:33;;;;;;;;;;;;;;;;;;4936793;29;20001;-89
2022/09/20 04:58:58;;;;;;;;;;;;;;;;;;4936941;29;19986;-89
2022/09/20 05:01:23;;;;;;;;;;;;;;;;;;4937176;29;20381;-89
2022/09/20 05:03:48;;;;;;;;;;;;;;;;;;4936608;29;19911;-89
2022/09/20 05:06:14;;;;;;;;;;;;;;;;;;4937066;29;19918;-89
2022/09/20 05:08:39;;;;;;;;;;;;;;;;;;4937248;29;19934;-89
2022/09/20 05:11:05;;;;;;;;;;;;;;;;;;4935408;29;19918;-89
2022/09/20 05:13:30;;;;;;;;;;;;;;;;;;4936566;29;19973;-89
2022/09/20 05:15:56;;;;;;;;;;;;;;;;;;4936866;29;20278;-89
2022/09/20 05:18:21;;;;;;;;;;;;;;;;;;4936621;29;19927;-89
2022/09/20 05:20:46;;;;;;;;;;;;;;;;;;4936940;29;19911;-89
2022/09/20 05:23:11;;;;;;;;;;;;;;;;;;4936519;29;20348;-89
2022/09/20 05:25:37;;;;;;;;;;;;;;;;;;4935623;29;20392;-89
2022/09/20 05:28:02;;;;;;;;;;;;;;;;;;4936169;29;19921;-89
2022/09/20 05:30:28;;;;;;;;;;;;;;;;;;4936339;29;19917;-89
2022/09/20 05:32:54;;;;;;;;;;;;;;;;;;4923877;29;20565;-88
2022/09/20 05:35:21;;;;;;;;;;;;;;;;;;4917327;29;19967;-89
2022/09/20 05:37:46;;;;;;;;;;;;;;;;;;4917276;29;20424;-89
2022/09/20 05:40:11;;;;;;;;;;;;;;;;;;4916934;29;20014;-89
2022/09/20 05:42:38;;;;;;;;;;;;;;;;;;4908119;29;19919;-89
2022/09/20 05:45:03;;;;;;;;;;;;;;;;;;4914499;29;20326;-89
2022/09/20 05:47:28;;;;;;;;;;;;;;;;;;4923164;29;19959;-89
2022/09/20 05:49:53;;;;;;;;;;;;;;;;;;4923836;29;19918;-89
2022/09/20 05:52:19;;;;;;;;;;;;;;;;;;4927582;29;20397;-89
2022/09/20 05:54:44;;;;;;;;;;;;;;;;;;4925562;29;19926;-90
2022/09/20 05:57:11;;;;;;;;;;;;;;;;;;4916655;29;21984;-89
2022/09/20 05:59:36;;;;;;;;;;;;;;;;;;4911759;29;20005;-89
2022/09/20 06:02:02;;;;;;;;;;;;;;;;;;4920719;29;20184;-89
2022/09/20 06:04:27;;;;;;;;;;;;;;;;;;4916529;29;19919;-91
2022/09/20 06:06:52;;;;;;;;;;;;;;;;;;4916603;29;19919;-88
2022/09/20 06:09:18;;;;;;;;;;;;;;;;;;4916317;29;19911;-90
2022/09/20 06:11:43;;;;;;;;;;;;;;;;;;4917138;29;20002;-89
2022/09/20 06:14:08;;;;;;;;;;;;;;;;;;4935123;29;20010;-89
2022/09/20 06:16:34;;;;;;;;;;;;;;;;;;4917749;29;19971;-89
2022/09/20 06:18:59;;;;;;;;;;;;;;;;;;4916672;29;20369;-89
2022/09/20 06:21:24;;;;;;;;;;;;;;;;;;4933867;29;19915;-90
2022/09/20 06:23:50;;;;;;;;;;;;;;;;;;4933478;29;19929;-89
2022/09/20 06:26:16;;;;;;;;;;;;;;;;;;4921820;29;19921;-90
2022/09/20 06:28:41;;;;;;;;;;;;;;;;;;4916511;29;20130;-89
2022/09/20 06:31:07;;;;;;;;;;;;;;;;;;4916322;29;20137;-89
2022/09/20 06:33:33;;;;;;;;;;;;;;;;;;4916335;29;19958;-89
2022/09/20 06:41:25;;;;;;;;;;;;;;;;;;4916390;29;20005;-89
2022/09/20 06:41:27;;;;;;;;;;;;;;;;;;4916069;29;20421;-89
2022/09/20 06:43:52;;;;;;;;;;;;;;;;;;4915729;29;19911;-89
2022/09/20 06:46:18;;;;;;;;;;;;;;;;;;4915971;29;19911;-89
2022/09/20 06:48:43;;;;;;;;;;;;;;;;;;4912762;29;20036;-88
2022/09/20 06:51:08;;;;;;;;;;;;;;;;;;4914882;29;20370;-88
2022/09/20 06:53:33;;;;;;;;;;;;;;;;;;4920170;29;19922;-90
2022/09/20 06:55:58;;;;;;;;;;;;;;;;;;4919040;29;19912;-90
2022/09/20 06:58:24;;;;;;;;;;;;;;;;;;4896888;29;19911;-90
2022/09/20 07:00:49;;;;;;;;;;;;;;;;;;4896915;29;19917;-89
2022/09/20 07:03:14;;;;;;;;;;;;;;;;;;4896656;29;19948;-89
2022/09/20 07:05:39;;;;;;;;;;;;;;;;;;4895724;29;19954;-89
2022/09/20 07:08:04;;;;;;;;;;;;;;;;;;4896344;29;19911;-89
2022/09/20 07:10:29;;;;;;;;;;;;;;;;;;4896295;29;19911;-89
2022/09/20 07:12:55;;;;;;;;;;;;;;;;;;4896388;29;19934;-89
2022/09/20 07:15:21;;;;;;;;;;;;;;;;;;4895709;29;19998;-89
2022/09/20 07:17:48;;;;;;;;;;;;;;;;;;4896041;29;19918;-89
2022/09/20 07:20:13;;;;;;;;;;;;;;;;;;4895605;29;19915;-89
2022/09/20 07:22:38;;;;;;;;;;;;;;;;;;4895374;29;19912;-90
2022/09/20 07:25:03;;;;;;;;;;;;;;;;;;4895734;29;20259;-89
2022/09/20 07:27:28;;;;;;;;;;;;;;;;;;4906617;29;19982;-89
2022/09/20 07:29:54;;;;;;;;;;;;;;;;;;4933421;29;19911;-90
2022/09/20 07:32:19;;;;;;;;;;;;;;;;;;4933113;29;19910;-89
2022/09/20 07:34:44;;;;;;;;;;;;;;;;;;4932231;29;19943;-89
2022/09/20 07:37:10;;;;;;;;;;;;;;;;;;4933407;29;20297;-89
2022/09/20 07:39:35;;;;;;;;;;;;;;;;;;4932881;29;20303;-90
2022/09/20 07:42:04;;;;;;;;;;;;;;;;;;4920908;29;19919;-89
2022/09/20 07:44:30;;;;;;;;;;;;;;;;;;4913660;29;20437;-89
2022/09/20 07:46:56;;;;;;;;;;;;;;;;;;4912703;29;20002;-89
2022/09/20 07:49:21;;;;;;;;;;;;;;;;;;4914496;29;20014;-90
2022/09/20 07:51:46;;;;;;;;;;;;;;;;;;4915703;29;20025;-89
2022/09/20 07:54:12;;;;;;;;;;;;;;;;;;4922307;29;20009;-89
2022/09/20 07:56:37;;;;;;;;;;;;;;;;;;4916277;29;19920;-91
2022/09/20 07:59:02;;;;;;;;;;;;;;;;;;4926167;29;19946;-89
2022/09/20 08:01:27;;;;;;;;;;;;;;;;;;4911035;29;19919;-90
2022/09/20 08:03:55;;;;;;;;;;;;;;;;;;4914721;29;19927;-89
2022/09/20 08:06:21;;;;;;;;;;;;;;;;;;4917071;29;19919;-89
2022/09/20 08:08:46;;;;;;;;;;;;;;;;;;4915498;29;19919;-88
2022/09/20 08:11:20;;;;;;;;;;;;;;;;;;4919343;29;19915;-90
2022/09/20 08:13:45;;;;;;;;;;;;;;;;;;4914371;29;19923;-89
2022/09/20 08:16:12;;;;;;;;;;;;;;;;;;4914679;29;19911;-89
2022/09/20 08:18:38;;;;;;;;;;;;;;;;;;4912090;29;19915;-88
2022/09/20 08:21:05;;;;;;;;;;;;;;;;;;4895064;29;19923;-88
2022/09/20 08:23:30;;;;;;;;;;;;;;;;;;4903175;29;19915;-90
2022/09/20 08:25:58;;;;;;;;;;;;;;;;;;4900060;29;20420;-90
2022/09/20 08:28:26;;;;;;;;;;;;;;;;;;4914282;29;20397;-90
2022/09/20 08:30:51;;;;;;;;;;;;;;;;;;4913521;29;19915;-88
2022/09/20 08:33:16;;;;;;;;;;;;;;;;;;4907758;29;19912;-90
2022/09/20 08:35:41;;;;;;;;;;;;;;;;;;4895069;29;19951;-87
2022/09/20 08:38:07;;;;;;;;;;;;;;;;;;4895832;29;19918;-89
2022/09/20 08:40:32;;;;;;;;;;;;;;;;;;4895123;29;19912;-89
2022/09/20 08:42:57;;;;;;;;;;;;;;;;;;4906780;29;19955;-88
2022/09/20 08:45:22;;;;;;;;;;;;;;;;;;4915839;29;19970;-88
2022/09/20 08:47:47;;;;;;;;;;;;;;;;;;4925451;29;19918;-89
2022/09/20 08:50:14;;;;;;;;;;;;;;;;;;4927592;29;19919;-88
2022/09/20 08:52:41;;;;;;;;;;;;;;;;;;4915971;29;19915;-90
2022/09/20 08:55:06;;;;;;;;;;;;;;;;;;4919180;29;19923;-88
2022/09/20 08:57:32;;;;;;;;;;;;;;;;;;4915500;29;19918;-89
2022/09/20 08:59:57;;;;;;;;;;;;;;;;;;4914447;29;19965;-88
2022/09/20 09:02:22;;;;;;;;;;;;;;;;;;4916825;29;19919;-91
2022/09/20 09:04:48;;;;;;;;;;;;;;;;;;4916688;29;19922;-91
2022/09/20 09:07:13;;;;;;;;;;;;;;;;;;4900938;29;19942;-86
2022/09/20 09:09:40;;;;;;;;;;;;;;;;;;4913926;29;19966;-92
2022/09/20 09:12:05;;;;;;;;;;;;;;;;;;4916001;29;19911;-87
2022/09/20 09:14:53;;;;;;;;;;;;;;;;;;4916714;29;19926;-88
2022/09/20 09:17:18;;;;;;;;;;;;;;;;;;4903901;29;19919;-86
2022/09/20 09:19:44;;;;;;;;;;;;;;;;;;4899863;29;20389;-89
2022/09/20 09:22:09;;;;;;;;;;;;;;;;;;4908669;29;19911;-89
2022/09/20 09:24:34;;;;;;;;;;;;;;;;;;4911394;29;19915;-88
2022/09/20 09:27:00;;;;;;;;;;;;;;;;;;4899440;29;19915;-89
2022/09/20 09:29:25;;;;;;;;;;;;;;;;;;4913534;29;19915;-89
2022/09/20 09:31:50;;;;;;;;;;;;;;;;;;4917880;29;19915;-89
2022/09/20 09:34:15;;;;;;;;;;;;;;;;;;4935820;29;19926;-89
2022/09/20 09:36:40;;;;;;;;;;;;;;;;;;4929222;29;19919;-88
2022/09/20 09:39:06;;;;;;;;;;;;;;;;;;4916325;29;20372;-87
2022/09/20 09:41:34;;;;;;;;;;;;;;;;;;4899640;29;19919;-89
2022/09/20 09:49:07;;;;;;;;;;;;;;;;;;4920816;29;19931;-89
2022/09/20 09:51:33;;;;;;;;;;;;;;;;;;4916477;29;20310;-89
2022/09/20 09:53:58;;;;;;;;;;;;;;;;;;4914828;29;19920;-90
2022/09/20 09:56:23;;;;;;;;;;;;;;;;;;4916644;29;19919;-90
2022/09/20 09:58:48;;;;;;;;;;;;;;;;;;4913974;29;19929;-90
2022/09/20 10:32:14;;;;;;;;;;;;;;;;;;5198371;23;20408;-89
2022/09/20 10:34:39;;;;;;;;;;;;;;;;;;4936363;29;19923;-89
2022/09/20 10:37:04;;;;;;;;;;;;;;;;;;4934972;29;19915;-89
2022/09/20 10:39:29;;;;;;;;;;;;;;;;;;4935669;29;20070;-89
2022/09/20 10:44:38;;;;;;;;;;;;;;;;;;4933228;29;19993;-91
2022/09/20 10:47:05;;;;;;;;;;;;;;;;;;4926388;29;20353;-91
2022/09/20 10:49:30;;;;;;;;;;;;;;;;;;4927233;29;19997;-91
2022/09/20 10:51:56;;;;;;;;;;;;;;;;;;4920738;29;20425;-91
2022/09/20 10:54:22;;;;;;;;;;;;;;;;;;4922968;29;19927;-90
2022/09/20 10:56:48;;;;;;;;;;;;;;;;;;4931215;29;20340;-91
2022/09/20 10:59:15;;;;;;;;;;;;;;;;;;4930939;28;19958;-91
2022/09/20 11:01:40;;;;;;;;;;;;;;;;;;4930384;29;20373;-91
2022/09/20 11:04:05;;;;;;;;;;;;;;;;;;4939649;29;19930;-92
2022/09/20 11:06:31;;;;;;;;;;;;;;;;;;4926040;29;19970;-89
2022/09/20 11:08:56;;;;;;;;;;;;;;;;;;4930190;29;19922;-90
2022/09/20 11:11:21;;;;;;;;;;;;;;;;;;4917966;29;20022;-91
2022/09/20 11:13:49;;;;;;;;;;;;;;;;;;4907570;29;19926;-92
2022/09/20 11:16:14;;;;;;;;;;;;;;;;;;4928999;29;20005;-90
2022/09/20 11:18:40;;;;;;;;;;;;;;;;;;4930885;29;20158;-91
2022/09/20 11:21:06;;;;;;;;;;;;;;;;;;4918367;29;19930;-90
2022/09/20 11:23:31;;;;;;;;;;;;;;;;;;4912602;29;20013;-90
2022/09/20 11:25:57;;;;;;;;;;;;;;;;;;4927246;29;20108;-92
2022/09/20 11:28:23;;;;;;;;;;;;;;;;;;4922221;29;19954;-92
2022/09/20 11:30:49;;;;;;;;;;;;;;;;;;4919378;29;19965;-91
2022/09/20 11:33:14;;;;;;;;;;;;;;;;;;4911971;29;20357;-91
2022/09/20 11:35:39;;;;;;;;;;;;;;;;;;4925871;29;19925;-91
2022/09/20 11:38:04;;;;;;;;;;;;;;;;;;4930454;29;19925;-90
2022/09/20 11:40:29;;;;;;;;;;;;;;;;;;4924963;29;19920;-91
2022/09/20 11:42:55;;;;;;;;;;;;;;;;;;4926612;29;19918;-91
2022/09/20 11:45:20;;;;;;;;;;;;;;;;;;4922841;29;19922;-91
2022/09/20 11:47:45;;;;;;;;;;;;;;;;;;4929421;28;19922;-91
2022/09/20 11:50:11;;;;;;;;;;;;;;;;;;4926086;29;20365;-91
2022/09/20 11:52:36;;;;;;;;;;;;;;;;;;4923614;29;20296;-91
2022/09/20 11:55:01;;;;;;;;;;;;;;;;;;4925324;29;19982;-91
2022/09/20 11:57:27;;;;;;;;;;;;;;;;;;4926166;29;19993;-91
2022/09/20 11:59:53;;;;;;;;;;;;;;;;;;4922291;29;19919;-91
2022/09/20 12:02:18;;;;;;;;;;;;;;;;;;4930876;28;19915;-91
2022/09/20 12:04:43;;;;;;;;;;;;;;;;;;4926272;29;19919;-91
2022/09/20 12:07:08;;;;;;;;;;;;;;;;;;4924655;29;19927;-92
2022/09/20 12:09:33;;;;;;;;;;;;;;;;;;4926153;29;19915;-91
2022/09/20 12:11:59;;;;;;;;;;;;;;;;;;4928356;29;20381;-92
2022/09/20 12:14:24;;;;;;;;;;;;;;;;;;4924819;28;19930;-92
2022/09/20 12:16:49;;;;;;;;;;;;;;;;;;4926189;29;20009;-91
2022/09/20 12:19:14;;;;;;;;;;;;;;;;;;4924749;28;20031;-91
2022/09/20 12:21:39;;;;;;;;;;;;;;;;;;4922360;29;20329;-92
2022/09/20 12:24:06;;;;;;;;;;;;;;;;;;4932980;29;20006;-91
2022/09/20 12:26:33;;;;;;;;;;;;;;;;;;4940677;28;19922;-92
2022/09/20 12:28:58;;;;;;;;;;;;;;;;;;4939288;29;19911;-91
2022/09/20 12:31:24;;;;;;;;;;;;;;;;;;4932851;29;19925;-91
2022/09/20 12:33:50;;;;;;;;;;;;;;;;;;4922042;29;20348;-92
2022/09/20 12:36:15;;;;;;;;;;;;;;;;;;4926758;29;20297;-91
2022/09/20 12:38:40;;;;;;;;;;;;;;;;;;4927336;29;19947;-91
2022/09/20 12:41:07;;;;;;;;;;;;;;;;;;4920964;29;20002;-92
2022/09/20 12:43:32;;;;;;;;;;;;;;;;;;4928486;29;19918;-92
2022/09/20 12:45:57;;;;;;;;;;;;;;;;;;4929079;28;19918;-92
2022/09/20 12:48:22;;;;;;;;;;;;;;;;;;4945616;28;20288;-91
2022/09/20 12:53:31;;;;;;;;;;;;;;;;;;4930749;29;19940;-90
2022/09/20 12:55:56;;;;;;;;;;;;;;;;;;4940827;28;19915;-90
2022/09/20 12:58:22;;;;;;;;;;;;;;;;;;4954785;28;20380;-90
2022/09/20 13:00:47;;;;;;;;;;;;;;;;;;4939700;29;19918;-90
2022/09/20 13:03:13;;;;;;;;;;;;;;;;;;4938094;29;19919;-91
2022/09/20 13:05:38;;;;;;;;;;;;;;;;;;4930390;29;19921;-90
2022/09/20 13:08:03;;;;;;;;;;;;;;;;;;4928935;29;19919;-90
2022/09/20 13:10:29;;;;;;;;;;;;;;;;;;4939602;29;19919;-90
2022/09/20 13:12:54;;;;;;;;;;;;;;;;;;4942405;29;19918;-90
2022/09/20 13:15:20;;;;;;;;;;;;;;;;;;4940848;29;20230;-91
2022/09/20 13:17:45;;;;;;;;;;;;;;;;;;4926416;28;20457;-90
2022/09/20 13:20:11;;;;;;;;;;;;;;;;;;4927378;29;19919;-90
2022/09/20 13:22:36;;;;;;;;;;;;;;;;;;4936835;28;19922;-90
2022/09/20 13:25:01;;;;;;;;;;;;;;;;;;4934855;28;20293;-91
2022/09/20 13:27:29;;;;;;;;;;;;;;;;;;4935560;29;19919;-91
2022/09/20 13:29:56;;;;;;;;;;;;;;;;;;4943937;28;19922;-92
2022/09/20 13:32:24;;;;;;;;;;;;;;;;;;4935518;29;19922;-92
2022/09/20 13:34:49;;;;;;;;;;;;;;;;;;4938925;29;19915;-92
2022/09/20 13:37:15;;;;;;;;;;;;;;;;;;4938032;29;20270;-91
2022/09/20 13:39:42;;;;;;;;;;;;;;;;;;4934259;29;19954;-92
2022/09/20 13:42:08;;;;;;;;;;;;;;;;;;4937026;29;19911;-92
2022/09/20 13:44:33;;;;;;;;;;;;;;;;;;4935531;29;19915;-91
2022/09/20 13:46:58;;;;;;;;;;;;;;;;;;4933636;29;20277;-92
2022/09/20 13:49:24;;;;;;;;;;;;;;;;;;4941738;29;19923;-92
2022/09/20 13:51:49;;;;;;;;;;;;;;;;;;4935199;29;19967;-91
2022/09/20 13:54:14;;;;;;;;;;;;;;;;;;4938055;29;19914;-91
2022/09/20 13:56:39;;;;;;;;;;;;;;;;;;4940130;28;19926;-92
2022/09/20 13:59:05;;;;;;;;;;;;;;;;;;4935153;29;19910;-92
2022/09/20 14:01:30;;;;;;;;;;;;;;;;;;4932416;29;19915;-92
2022/09/20 14:03:55;;;;;;;;;;;;;;;;;;4931800;29;20380;-94
2022/09/20 14:06:25;;;;;;;;;;;;;;;;;;4933667;29;20006;-92
2022/09/20 14:08:50;;;;;;;;;;;;;;;;;;4934839;29;19914;-91
2022/09/20 14:11:16;;;;;;;;;;;;;;;;;;4936820;29;19915;-92
2022/09/20 14:13:41;;;;;;;;;;;;;;;;;;4930806;29;20345;-92
2022/09/20 14:16:06;;;;;;;;;;;;;;;;;;4935804;29;19997;-91
2022/09/20 14:18:31;;;;;;;;;;;;;;;;;;4935066;29;20006;-91
2022/09/20 14:20:59;;;;;;;;;;;;;;;;;;4934359;29;19922;-91
2022/09/20 14:23:24;;;;;;;;;;;;;;;;;;4938785;29;20005;-92
2022/09/20 14:25:49;;;;;;;;;;;;;;;;;;4934911;29;20006;-91
2022/09/20 14:28:14;;;;;;;;;;;;;;;;;;4937297;29;19918;-92
2022/09/20 14:30:40;;;;;;;;;;;;;;;;;;4938263;28;19922;-92
2022/09/20 14:33:05;;;;;;;;;;;;;;;;;;4938580;29;19973;-92
2022/09/20 14:35:30;;;;;;;;;;;;;;;;;;4933183;29;19923;-91
2022/09/20 14:37:56;;;;;;;;;;;;;;;;;;4932442;29;20392;-93
2022/09/20 14:40:23;;;;;;;;;;;;;;;;;;4937647;29;19914;-92
2022/09/20 14:42:48;;;;;;;;;;;;;;;;;;4931538;29;19919;-93
2022/09/20 14:45:14;;;;;;;;;;;;;;;;;;4938826;29;20340;-92
2022/09/20 14:47:39;;;;;;;;;;;;;;;;;;4932498;29;19922;-91
2022/09/20 14:50:04;;;;;;;;;;;;;;;;;;4935430;29;19919;-92
2022/09/20 14:52:29;;;;;;;;;;;;;;;;;;4938583;29;19918;-92
2022/09/20 14:54:55;;;;;;;;;;;;;;;;;;4933243;29;20406;-92
2022/09/20 14:57:22;;;;;;;;;;;;;;;;;;4937236;29;19986;-92
2022/09/20 14:59:47;;;;;;;;;;;;;;;;;;4928084;29;20008;-92
2022/09/20 15:02:15;;;;;;;;;;;;;;;;;;4935051;29;19914;-93
2022/09/20 15:04:42;;;;;;;;;;;;;;;;;;4933717;29;19918;-93
2022/09/20 15:07:10;;;;;;;;;;;;;;;;;;4934376;29;19915;-93
2022/09/20 15:09:35;;;;;;;;;;;;;;;;;;4918497;29;20333;-93
2022/09/20 15:12:03;;;;;;;;;;;;;;;;;;4924641;29;19922;-92
2022/09/20 15:14:28;;;;;;;;;;;;;;;;;;4925967;29;20329;-92
2022/09/20 15:16:53;;;;;;;;;;;;;;;;;;4925035;29;20348;-93
2022/09/20 15:19:18;;;;;;;;;;;;;;;;;;4949247;29;20413;-93
2022/09/20 15:21:44;;;;;;;;;;;;;;;;;;4940221;28;20299;-93
2022/09/20 15:24:09;;;;;;;;;;;;;;;;;;4929156;29;19911;-92
2022/09/20 15:26:34;;;;;;;;;;;;;;;;;;4930721;29;20014;-92
2022/09/20 15:28:59;;;;;;;;;;;;;;;;;;4933573;29;19942;-93
2022/09/20 15:31:26;;;;;;;;;;;;;;;;;;4930217;29;19965;-93
2022/09/20 15:33:53;;;;;;;;;;;;;;;;;;4934076;29;19915;-92
2022/09/20 15:36:19;;;;;;;;;;;;;;;;;;4937085;29;20752;-92
2022/09/20 15:38:44;;;;;;;;;;;;;;;;;;4938261;29;19915;-92
2022/09/20 15:41:09;;;;;;;;;;;;;;;;;;4928613;29;19921;-93
2022/09/20 15:43:35;;;;;;;;;;;;;;;;;;4934565;29;20017;-92
2022/09/20 15:46:00;;;;;;;;;;;;;;;;;;4934065;29;19911;-93
2022/09/20 15:48:29;;;;;;;;;;;;;;;;;;4935422;29;19950;-92
2022/09/20 15:50:56;;;;;;;;;;;;;;;;;;4918161;29;19958;-93
2022/09/20 16:01:18;;;;;;;;;;;;;;;;;;4926292;29;19986;-87
2022/09/20 16:11:23;;;;;;;;;;;;;;;;;;5031301;23;20030;-87
2022/09/20 16:13:48;;;;;;;;;;;;;;;;;;4921627;29;19931;-88
2022/09/20 16:16:16;;;;;;;;;;;;;;;;;;4922667;29;19956;-87
2022/09/20 16:21:25;;;;;;;;;;;;;;;;;;4920937;29;20055;-88
2022/09/20 16:23:53;;;;;;;;;;;;;;;;;;4921185;29;19986;-88
2022/09/20 16:26:20;;;;;;;;;;;;;;;;;;4926417;29;19919;-88
2022/09/20 16:28:45;;;;;;;;;;;;;;;;;;4925129;29;20009;-89
2022/09/20 16:31:11;;;;;;;;;;;;;;;;;;4921762;29;20106;-87
2022/09/20 16:33:36;;;;;;;;;;;;;;;;;;4927099;29;19983;-88
2022/09/20 16:36:01;;;;;;;;;;;;;;;;;;4920890;29;20153;-87
2022/09/20 16:38:29;;;;;;;;;;;;;;;;;;4930024;29;20017;-86
2022/09/20 16:41:00;;;;;;;;;;;;;;;;;;4933414;29;19915;-87
2022/09/20 16:43:25;;;;;;;;;;;;;;;;;;4929231;29;19915;-87
2022/09/20 16:45:53;;;;;;;;;;;;;;;;;;4930153;29;19926;-88
2022/09/20 16:54:18;;;;;;;;;;;;;;;;;;4929821;29;19962;-87
2022/09/20 16:56:53;;;;;;;;;;;;;;;;;;;;;
2022/09/20 16:59:21;;;;;;;;;;;;;;;;;;4930388;29;19919;-87
2022/09/20 17:01:47;;;;;;;;;;;;;;;;;;4935302;29;19910;-87
2022/09/20 17:04:20;;;;;;;;;;;;;;;;;;4941075;29;19923;-87
2022/09/20 17:06:54;;;;;;;;;;;;;;;;;;4928071;29;19978;-89
2022/09/20 17:12:40;;;;;;;;;;;;;;;;;;4934176;29;20428;-88
2022/09/20 17:15:12;;;;;;;;;;;;;;;;;;;;;
2022/09/20 17:17:38;;;;;;;;;;;;;;;;;;4927351;29;20590;-87
2022/09/20 17:20:13;;;;;;;;;;;;;;;;;;;;;
2022/09/20 17:22:39;;;;;;;;;;;;;;;;;;4930329;28;19915;-88
2022/09/20 17:25:14;;;;;;;;;;;;;;;;;;4916820;29;20047;-88
2022/09/20 17:27:42;;;;;;;;;;;;;;;;;;4915368;29;19915;-87
2022/09/20 17:30:09;;;;;;;;;;;;;;;;;;4934924;29;19915;-87
2022/09/20 17:35:28;;;;;;;;;;;;;;;;;;4924966;29;19962;-87
2022/09/20 17:37:53;;;;;;;;;;;;;;;;;;4929706;29;19923;-88
2022/09/20 17:40:28;;;;;;;;;;;;;;;;;;;;;
2022/09/20 17:45:39;;;;;;;;;;;;;;;;;;4934409;29;19979;-86
2022/09/20 17:48:05;;;;;;;;;;;;;;;;;;4937417;29;20369;-86
2022/09/20 17:50:30;;;;;;;;;;;;;;;;;;4937153;29;20416;-88
2022/09/20 17:52:56;;;;;;;;;;;;;;;;;;4943060;29;19918;-89
2022/09/20 17:55:22;;;;;;;;;;;;;;;;;;4933338;29;19983;-87
2022/09/20 17:57:48;;;;;;;;;;;;;;;;;;4928985;29;20273;-88